Terminal Aerodrome Forecast
Issued by NWS

Home | Current Version | Previous Version | Text Only | Print | Product List | Glossary On
Versions: 1 2 3 4 5 6 7 8 9 10 11 12 13 14 15 16 17
000
FTAK31 PAJN 251821 AAA
TAFAPG
TAF AMD
PAPG 251821Z 2518/2618 09006KT P6SM SCT008 SCT013 SCT040
     FM252200 07006KT P6SM SCT020 BKN200=

USA.gov is the U.S. government's official web portal to all federal, state and local government web resources and services.